Aspen-Gerbaz, Colorado
Current Conditions -  °F | °C
As of 11:53 PM on Wednesday 22 Oct 2014 (Local Time) from KASE Reporting Station
Clear Clear  
Wind Chill: 30°   Ceiling: Unl
Heat Index: 36°   Visibility: 10mi
Dew Point: 33°   Wind: 7mph
Humidity: 89%   Direction: 200°SSW
Pressure: 30.31"   Gusts: NA
Location:  39.1256°N, 106.797°W
Report Text: KASE 230553Z 20006KT 10SM CLR 02/01 A3031 RMK AO2 SLP206 T00220006 10089 20011 50003
Loading
Personal Weather Stations






























Interactive Weather Map
Tropical Storm Tracking
New forecast layout! Learn more

10-Day Weather Forecast

Advertisements
Track Severe Weather on mobile